Holbrook, Nebraska
Current Conditions -  °F | °C
As of 9:53 AM on Thursday 30 Oct 2014 (Local Time) from KMCK Reporting Station
Clear Clear  
Wind Chill:   Ceiling: Unl
Heat Index:   Visibility: 10mi
Dew Point: -1°   Wind: 13mph
Humidity: 50%   Direction: 320°NW
Pressure: 30.25"   Gusts: NA
Location:  40.3°N, 100.01°W
Report Text: KMCK 301453Z AUTO 32011KT 10SM CLR 09/M01 A3025 RMK AO2 SLP246 T00891011 52020
Loading
Personal Weather Stations






























Interactive Weather Map
Tropical Storm Tracking
New forecast layout! Learn more

10-Day Weather Forecast

Advertisements
Track Severe Weather on mobile